sensor_id;sensor_type;location;lat;lon;timestamp;temperature;humidity
42099;DHT22;27758;55.900;8.516;2023-05-24T00:01:47;10.90;99.90
42099;DHT22;27758;55.900;8.516;2023-05-24T00:04:13;10.80;99.90
42099;DHT22;27758;55.900;8.516;2023-05-24T00:06:40;10.90;99.90
42099;DHT22;27758;55.900;8.516;2023-05-24T00:09:06;10.90;99.90
42099;DHT22;27758;55.900;8.516;2023-05-24T00:11:33;10.80;99.90
42099;DHT22;27758;55.900;8.516;2023-05-24T00:13:59;10.90;99.90
42099;DHT22;27758;55.900;8.516;2023-05-24T00:16:25;10.80;99.90
42099;DHT22;27758;55.900;8.516;2023-05-24T00:18:50;10.80;99.90
42099;DHT22;27758;55.900;8.516;2023-05-24T00:21:16;10.80;99.90
42099;DHT22;27758;55.900;8.516;2023-05-24T00:23:42;10.80;99.90
42099;DHT22;27758;55.900;8.516;2023-05-24T00:26:08;10.80;99.90
42099;DHT22;27758;55.900;8.516;2023-05-24T00:28:35;10.80;99.90
42099;DHT22;27758;55.900;8.516;2023-05-24T00:31:02;10.80;99.90
42099;DHT22;27758;55.900;8.516;2023-05-24T00:33:28;10.80;99.90
42099;DHT22;27758;55.900;8.516;2023-05-24T00:35:57;10.80;99.90
42099;DHT22;27758;55.900;8.516;2023-05-24T00:38:23;10.70;99.90
42099;DHT22;27758;55.900;8.516;2023-05-24T00:40:49;10.80;99.90
42099;DHT22;27758;55.900;8.516;2023-05-24T00:43:15;10.80;99.90
42099;DHT22;27758;55.900;8.516;2023-05-24T00:45:41;10.70;99.90
42099;DHT22;27758;55.900;8.516;2023-05-24T00:48:08;10.70;99.90
42099;DHT22;27758;55.900;8.516;2023-05-24T00:50:34;10.70;99.90
42099;DHT22;27758;55.900;8.516;2023-05-24T00:53:01;10.70;99.90
42099;DHT22;27758;55.900;8.516;2023-05-24T00:55:28;10.60;99.90
42099;DHT22;27758;55.900;8.516;2023-05-24T00:57:56;10.60;99.90
42099;DHT22;27758;55.900;8.516;2023-05-24T01:00:22;10.60;99.90
42099;DHT22;27758;55.900;8.516;2023-05-24T01:02:49;10.60;99.90
42099;DHT22;27758;55.900;8.516;2023-05-24T01:05:17;10.60;99.90
42099;DHT22;27758;55.900;8.516;2023-05-24T01:08:15;10.60;99.90
42099;DHT22;27758;55.900;8.516;2023-05-24T01:11:03;10.50;99.90
42099;DHT22;27758;55.900;8.516;2023-05-24T01:13:40;10.50;99.90
42099;DHT22;27758;55.900;8.516;2023-05-24T01:16:16;10.50;99.90
42099;DHT22;27758;55.900;8.516;2023-05-24T01:18:53;10.50;99.90
42099;DHT22;27758;55.900;8.516;2023-05-24T01:21:42;10.40;99.90
42099;DHT22;27758;55.900;8.516;2023-05-24T01:29:35;10.30;99.90
42099;DHT22;27758;55.900;8.516;2023-05-24T01:32:02;10.30;99.90
42099;DHT22;27758;55.900;8.516;2023-05-24T01:34:28;10.20;99.90
42099;DHT22;27758;55.900;8.516;2023-05-24T01:36:54;10.20;99.90
42099;DHT22;27758;55.900;8.516;2023-05-24T01:39:22;10.20;99.90
42099;DHT22;27758;55.900;8.516;2023-05-24T01:42:03;10.10;99.90
42099;DHT22;27758;55.900;8.516;2023-05-24T01:44:50;10.20;99.90
42099;DHT22;27758;55.900;8.516;2023-05-24T01:47:33;10.10;99.90
42099;DHT22;27758;55.900;8.516;2023-05-24T01:50:27;10.20;99.90
42099;DHT22;27758;55.900;8.516;2023-05-24T01:53:00;10.20;99.90
42099;DHT22;27758;55.900;8.516;2023-05-24T01:55:29;10.10;99.90
42099;DHT22;27758;55.900;8.516;2023-05-24T01:57:59;10.10;99.90
42099;DHT22;27758;55.900;8.516;2023-05-24T02:00:26;10.10;99.90
42099;DHT22;27758;55.900;8.516;2023-05-24T02:02:53;10.00;99.90
42099;DHT22;27758;55.900;8.516;2023-05-24T02:05:19;10.10;99.90
42099;DHT22;27758;55.900;8.516;2023-05-24T02:07:45;10.10;99.90
42099;DHT22;27758;55.900;8.516;2023-05-24T02:10:11;10.00;99.90
42099;DHT22;27758;55.900;8.516;2023-05-24T02:12:37;9.90;99.90
42099;DHT22;27758;55.900;8.516;2023-05-24T02:15:03;10.00;99.90
42099;DHT22;27758;55.900;8.516;2023-05-24T02:17:29;9.90;99.90
42099;DHT22;27758;55.900;8.516;2023-05-24T02:19:58;9.90;99.90
42099;DHT22;27758;55.900;8.516;2023-05-24T02:22:24;9.90;99.90
42099;DHT22;27758;55.900;8.516;2023-05-24T02:24:50;9.90;99.90
42099;DHT22;27758;55.900;8.516;2023-05-24T02:27:16;9.90;99.90
42099;DHT22;27758;55.900;8.516;2023-05-24T02:29:41;9.80;99.90
42099;DHT22;27758;55.900;8.516;2023-05-24T02:32:07;9.80;99.90
42099;DHT22;27758;55.900;8.516;2023-05-24T02:34:33;9.80;99.90
42099;DHT22;27758;55.900;8.516;2023-05-24T02:36:59;9.80;99.90
42099;DHT22;27758;55.900;8.516;2023-05-24T02:39:24;9.70;99.90
42099;DHT22;27758;55.900;8.516;2023-05-24T02:41:50;9.70;99.90
42099;DHT22;27758;55.900;8.516;2023-05-24T02:44:16;9.80;99.90
42099;DHT22;27758;55.900;8.516;2023-05-24T02:46:42;9.80;99.90
42099;DHT22;27758;55.900;8.516;2023-05-24T02:49:07;9.80;99.90
42099;DHT22;27758;55.900;8.516;2023-05-24T02:51:34;9.70;99.90
42099;DHT22;27758;55.900;8.516;2023-05-24T02:54:02;9.60;99.90
42099;DHT22;27758;55.900;8.516;2023-05-24T02:56:27;9.60;99.90
42099;DHT22;27758;55.900;8.516;2023-05-24T02:58:54;9.60;99.90
42099;DHT22;27758;55.900;8.516;2023-05-24T03:01:20;9.60;99.90
42099;DHT22;27758;55.900;8.516;2023-05-24T03:03:46;9.60;99.90
42099;DHT22;27758;55.900;8.516;2023-05-24T03:06:12;9.60;99.90
42099;DHT22;27758;55.900;8.516;2023-05-24T03:08:39;9.60;99.90
42099;DHT22;27758;55.900;8.516;2023-05-24T03:11:05;9.60;99.90
42099;DHT22;27758;55.900;8.516;2023-05-24T03:13:31;9.60;99.90
42099;DHT22;27758;55.900;8.516;2023-05-24T03:15:56;9.60;99.90
42099;DHT22;27758;55.900;8.516;2023-05-24T03:18:22;9.60;99.90
42099;DHT22;27758;55.900;8.516;2023-05-24T03:20:48;9.60;99.90
42099;DHT22;27758;55.900;8.516;2023-05-24T03:23:13;9.50;99.90
42099;DHT22;27758;55.900;8.516;2023-05-24T03:25:39;9.50;99.90
42099;DHT22;27758;55.900;8.516;2023-05-24T03:28:05;9.50;99.90
42099;DHT22;27758;55.900;8.516;2023-05-24T03:30:32;9.50;99.90
42099;DHT22;27758;55.900;8.516;2023-05-24T03:32:58;9.50;99.90
42099;DHT22;27758;55.900;8.516;2023-05-24T03:35:24;9.50;99.90
42099;DHT22;27758;55.900;8.516;2023-05-24T03:37:49;9.50;99.90
42099;DHT22;27758;55.900;8.516;2023-05-24T03:40:15;9.50;99.90
42099;DHT22;27758;55.900;8.516;2023-05-24T03:42:41;9.60;99.90
42099;DHT22;27758;55.900;8.516;2023-05-24T03:45:07;9.60;99.90
42099;DHT22;27758;55.900;8.516;2023-05-24T03:47:33;9.60;99.90
42099;DHT22;27758;55.900;8.516;2023-05-24T03:49:59;9.60;99.90
42099;DHT22;27758;55.900;8.516;2023-05-24T03:52:24;9.70;99.90
42099;DHT22;27758;55.900;8.516;2023-05-24T03:54:50;9.70;99.90
42099;DHT22;27758;55.900;8.516;2023-05-24T03:57:16;9.70;99.90
42099;DHT22;27758;55.900;8.516;2023-05-24T03:59:42;9.70;99.90
42099;DHT22;27758;55.900;8.516;2023-05-24T04:02:08;9.80;99.90
42099;DHT22;27758;55.900;8.516;2023-05-24T04:04:33;9.80;99.90
42099;DHT22;27758;55.900;8.516;2023-05-24T04:06:59;9.90;99.90
42099;DHT22;27758;55.900;8.516;2023-05-24T04:09:25;9.90;99.90
42099;DHT22;27758;55.900;8.516;2023-05-24T04:11:51;10.00;99.90
42099;DHT22;27758;55.900;8.516;2023-05-24T04:14:16;10.00;99.90
42099;DHT22;27758;55.900;8.516;2023-05-24T04:16:42;10.10;99.90
42099;DHT22;27758;55.900;8.516;2023-05-24T04:19:09;10.10;99.90
42099;DHT22;27758;55.900;8.516;2023-05-24T04:21:36;10.20;99.90
42099;DHT22;27758;55.900;8.516;2023-05-24T04:24:03;10.20;99.90
42099;DHT22;27758;55.900;8.516;2023-05-24T04:26:29;10.30;99.90
42099;DHT22;27758;55.900;8.516;2023-05-24T04:28:55;10.30;99.90
42099;DHT22;27758;55.900;8.516;2023-05-24T04:31:21;10.40;99.90
42099;DHT22;27758;55.900;8.516;2023-05-24T04:33:47;10.40;99.90
42099;DHT22;27758;55.900;8.516;2023-05-24T04:36:15;10.50;99.90
42099;DHT22;27758;55.900;8.516;2023-05-24T04:38:42;10.50;99.90
42099;DHT22;27758;55.900;8.516;2023-05-24T04:41:10;10.50;99.90
42099;DHT22;27758;55.900;8.516;2023-05-24T04:43:37;10.60;99.90
42099;DHT22;27758;55.900;8.516;2023-05-24T04:46:03;10.60;99.90
42099;DHT22;27758;55.900;8.516;2023-05-24T04:48:29;10.70;99.90
42099;DHT22;27758;55.900;8.516;2023-05-24T04:50:55;10.70;99.90
42099;DHT22;27758;55.900;8.516;2023-05-24T04:53:22;10.70;99.90
42099;DHT22;27758;55.900;8.516;2023-05-24T04:55:49;10.80;99.90
42099;DHT22;27758;55.900;8.516;2023-05-24T04:58:15;10.90;99.90
42099;DHT22;27758;55.900;8.516;2023-05-24T05:00:42;11.00;99.90
42099;DHT22;27758;55.900;8.516;2023-05-24T05:03:09;11.00;99.90
42099;DHT22;27758;55.900;8.516;2023-05-24T05:05:35;11.00;99.90
42099;DHT22;27758;55.900;8.516;2023-05-24T05:08:01;11.10;99.90
42099;DHT22;27758;55.900;8.516;2023-05-24T05:10:28;11.10;99.90
42099;DHT22;27758;55.900;8.516;2023-05-24T05:12:54;11.20;99.90
42099;DHT22;27758;55.900;8.516;2023-05-24T05:15:24;11.30;99.90
42099;DHT22;27758;55.900;8.516;2023-05-24T05:17:49;11.40;99.90
42099;DHT22;27758;55.900;8.516;2023-05-24T05:20:15;11.50;99.90
42099;DHT22;27758;55.900;8.516;2023-05-24T05:22:47;11.60;99.90
42099;DHT22;27758;55.900;8.516;2023-05-24T05:25:13;11.70;99.90
42099;DHT22;27758;55.900;8.516;2023-05-24T05:27:39;11.70;99.90
42099;DHT22;27758;55.900;8.516;2023-05-24T05:30:05;11.70;99.90
42099;DHT22;27758;55.900;8.516;2023-05-24T05:32:32;11.70;99.90
42099;DHT22;27758;55.900;8.516;2023-05-24T05:34:58;11.80;99.90
42099;DHT22;27758;55.900;8.516;2023-05-24T05:37:24;11.90;99.90
42099;DHT22;27758;55.900;8.516;2023-05-24T05:39:49;11.90;99.90
42099;DHT22;27758;55.900;8.516;2023-05-24T05:42:15;11.90;99.90
42099;DHT22;27758;55.900;8.516;2023-05-24T05:44:41;11.80;99.90
42099;DHT22;27758;55.900;8.516;2023-05-24T05:47:07;11.80;99.90
42099;DHT22;27758;55.900;8.516;2023-05-24T05:49:34;11.90;99.90
42099;DHT22;27758;55.900;8.516;2023-05-24T05:52:04;11.90;99.90
42099;DHT22;27758;55.900;8.516;2023-05-24T05:54:30;12.00;99.90
42099;DHT22;27758;55.900;8.516;2023-05-24T05:56:56;12.10;99.90
42099;DHT22;27758;55.900;8.516;2023-05-24T05:59:22;12.30;99.90
42099;DHT22;27758;55.900;8.516;2023-05-24T06:01:47;12.40;99.90
42099;DHT22;27758;55.900;8.516;2023-05-24T06:04:14;12.70;99.90
42099;DHT22;27758;55.900;8.516;2023-05-24T06:06:40;13.10;99.90
42099;DHT22;27758;55.900;8.516;2023-05-24T06:09:06;13.30;99.90
42099;DHT22;27758;55.900;8.516;2023-05-24T06:11:32;13.30;99.90
42099;DHT22;27758;55.900;8.516;2023-05-24T06:13:58;13.40;99.90
42099;DHT22;27758;55.900;8.516;2023-05-24T06:16:24;13.70;99.90
42099;DHT22;27758;55.900;8.516;2023-05-24T06:18:49;13.90;99.90
42099;DHT22;27758;55.900;8.516;2023-05-24T06:21:15;14.10;99.90
42099;DHT22;27758;55.900;8.516;2023-05-24T06:23:41;14.40;99.90
42099;DHT22;27758;55.900;8.516;2023-05-24T06:26:07;14.70;99.90
42099;DHT22;27758;55.900;8.516;2023-05-24T06:28:37;15.00;99.90
42099;DHT22;27758;55.900;8.516;2023-05-24T06:31:05;15.20;99.90
42099;DHT22;27758;55.900;8.516;2023-05-24T06:33:32;15.50;99.90
42099;DHT22;27758;55.900;8.516;2023-05-24T06:35:58;15.60;99.90
42099;DHT22;27758;55.900;8.516;2023-05-24T06:38:23;15.80;99.90
42099;DHT22;27758;55.900;8.516;2023-05-24T06:40:49;15.80;99.90
42099;DHT22;27758;55.900;8.516;2023-05-24T06:43:15;16.00;99.90
42099;DHT22;27758;55.900;8.516;2023-05-24T06:45:42;16.10;99.90
42099;DHT22;27758;55.900;8.516;2023-05-24T06:48:08;16.30;99.90
42099;DHT22;27758;55.900;8.516;2023-05-24T06:50:33;16.40;99.90
42099;DHT22;27758;55.900;8.516;2023-05-24T06:53:00;16.40;99.90
42099;DHT22;27758;55.900;8.516;2023-05-24T06:55:27;16.50;99.90
42099;DHT22;27758;55.900;8.516;2023-05-24T06:57:53;16.70;99.90
42099;DHT22;27758;55.900;8.516;2023-05-24T07:00:20;17.00;99.90
42099;DHT22;27758;55.900;8.516;2023-05-24T07:02:46;17.30;99.90
42099;DHT22;27758;55.900;8.516;2023-05-24T07:05:12;17.50;99.90
42099;DHT22;27758;55.900;8.516;2023-05-24T07:07:41;17.50;99.90
42099;DHT22;27758;55.900;8.516;2023-05-24T07:10:09;17.50;99.90
42099;DHT22;27758;55.900;8.516;2023-05-24T07:12:35;17.70;99.90
42099;DHT22;27758;55.900;8.516;2023-05-24T07:15:05;17.70;99.90
42099;DHT22;27758;55.900;8.516;2023-05-24T07:17:34;17.70;99.90
42099;DHT22;27758;55.900;8.516;2023-05-24T07:20:00;17.80;99.90
42099;DHT22;27758;55.900;8.516;2023-05-24T07:22:26;18.00;99.90
42099;DHT22;27758;55.900;8.516;2023-05-24T07:24:53;18.30;99.90
42099;DHT22;27758;55.900;8.516;2023-05-24T07:27:19;18.50;99.90
42099;DHT22;27758;55.900;8.516;2023-05-24T07:29:45;18.80;99.90
42099;DHT22;27758;55.900;8.516;2023-05-24T07:32:11;18.80;99.90
42099;DHT22;27758;55.900;8.516;2023-05-24T07:34:37;19.00;99.90
42099;DHT22;27758;55.900;8.516;2023-05-24T07:37:04;19.10;99.90
42099;DHT22;27758;55.900;8.516;2023-05-24T07:39:29;19.20;99.90
42099;DHT22;27758;55.900;8.516;2023-05-24T07:41:55;19.20;99.90
42099;DHT22;27758;55.900;8.516;2023-05-24T07:44:21;19.40;99.90
42099;DHT22;27758;55.900;8.516;2023-05-24T07:46:48;19.50;99.90
42099;DHT22;27758;55.900;8.516;2023-05-24T07:49:14;19.40;99.90
42099;DHT22;27758;55.900;8.516;2023-05-24T07:51:40;19.40;99.90
42099;DHT22;27758;55.900;8.516;2023-05-24T07:54:05;19.50;99.90
42099;DHT22;27758;55.900;8.516;2023-05-24T07:56:31;19.40;99.90
42099;DHT22;27758;55.900;8.516;2023-05-24T07:58:58;19.30;99.90
42099;DHT22;27758;55.900;8.516;2023-05-24T08:01:34;19.30;99.90
42099;DHT22;27758;55.900;8.516;2023-05-24T08:04:01;18.90;99.90
42099;DHT22;27758;55.900;8.516;2023-05-24T08:06:32;18.70;99.90
42099;DHT22;27758;55.900;8.516;2023-05-24T08:09:00;18.80;99.90
42099;DHT22;27758;55.900;8.516;2023-05-24T08:11:26;18.80;99.90
42099;DHT22;27758;55.900;8.516;2023-05-24T08:13:52;19.10;99.90
42099;DHT22;27758;55.900;8.516;2023-05-24T08:16:17;19.30;99.90
42099;DHT22;27758;55.900;8.516;2023-05-24T08:18:43;19.30;99.90
42099;DHT22;27758;55.900;8.516;2023-05-24T08:21:09;19.00;99.90
42099;DHT22;27758;55.900;8.516;2023-05-24T08:23:35;19.00;99.90
42099;DHT22;27758;55.900;8.516;2023-05-24T08:26:00;19.10;99.90
42099;DHT22;27758;55.900;8.516;2023-05-24T08:28:27;19.30;99.90
42099;DHT22;27758;55.900;8.516;2023-05-24T08:30:53;19.60;99.90
42099;DHT22;27758;55.900;8.516;2023-05-24T08:33:20;19.50;99.90
42099;DHT22;27758;55.900;8.516;2023-05-24T08:35:48;19.50;99.90
42099;DHT22;27758;55.900;8.516;2023-05-24T08:38:14;19.50;99.90
42099;DHT22;27758;55.900;8.516;2023-05-24T08:40:39;19.60;99.90
42099;DHT22;27758;55.900;8.516;2023-05-24T08:43:07;19.70;99.90
42099;DHT22;27758;55.900;8.516;2023-05-24T08:45:39;19.90;99.90
42099;DHT22;27758;55.900;8.516;2023-05-24T08:48:05;19.70;99.90
42099;DHT22;27758;55.900;8.516;2023-05-24T08:50:32;20.00;99.90
42099;DHT22;27758;55.900;8.516;2023-05-24T08:52:59;20.30;99.90
42099;DHT22;27758;55.900;8.516;2023-05-24T08:55:28;20.30;99.90
42099;DHT22;27758;55.900;8.516;2023-05-24T08:57:54;20.50;99.90
42099;DHT22;27758;55.900;8.516;2023-05-24T09:00:21;20.70;99.90
42099;DHT22;27758;55.900;8.516;2023-05-24T09:02:48;20.80;99.90
42099;DHT22;27758;55.900;8.516;2023-05-24T09:05:14;21.20;99.90
42099;DHT22;27758;55.900;8.516;2023-05-24T09:07:43;21.80;99.90
42099;DHT22;27758;55.900;8.516;2023-05-24T09:10:09;22.00;99.90
42099;DHT22;27758;55.900;8.516;2023-05-24T09:12:36;22.00;99.90
42099;DHT22;27758;55.900;8.516;2023-05-24T09:15:03;22.00;99.90
42099;DHT22;27758;55.900;8.516;2023-05-24T09:17:33;22.20;99.90
42099;DHT22;27758;55.900;8.516;2023-05-24T09:19:59;22.30;99.90
42099;DHT22;27758;55.900;8.516;2023-05-24T09:22:27;22.50;99.90
42099;DHT22;27758;55.900;8.516;2023-05-24T09:24:59;22.80;99.90
42099;DHT22;27758;55.900;8.516;2023-05-24T09:27:25;22.50;99.90
42099;DHT22;27758;55.900;8.516;2023-05-24T09:29:51;22.80;99.90
42099;DHT22;27758;55.900;8.516;2023-05-24T09:32:19;23.40;99.90
42099;DHT22;27758;55.900;8.516;2023-05-24T09:34:47;23.50;99.90
42099;DHT22;27758;55.900;8.516;2023-05-24T09:37:14;23.10;99.90
42099;DHT22;27758;55.900;8.516;2023-05-24T09:39:42;22.10;99.90
42099;DHT22;27758;55.900;8.516;2023-05-24T09:42:10;21.60;99.90
42099;DHT22;27758;55.900;8.516;2023-05-24T09:44:38;21.30;99.90
42099;DHT22;27758;55.900;8.516;2023-05-24T09:47:06;21.00;99.90
42099;DHT22;27758;55.900;8.516;2023-05-24T09:49:36;20.20;99.90
42099;DHT22;27758;55.900;8.516;2023-05-24T09:52:01;19.40;99.90
42099;DHT22;27758;55.900;8.516;2023-05-24T09:54:27;19.00;99.90
42099;DHT22;27758;55.900;8.516;2023-05-24T09:56:53;18.70;99.90
42099;DHT22;27758;55.900;8.516;2023-05-24T09:59:19;18.40;99.90
42099;DHT22;27758;55.900;8.516;2023-05-24T10:01:45;18.30;99.90
42099;DHT22;27758;55.900;8.516;2023-05-24T10:04:12;18.20;99.90
42099;DHT22;27758;55.900;8.516;2023-05-24T10:06:40;18.40;99.90
42099;DHT22;27758;55.900;8.516;2023-05-24T10:09:08;19.10;99.90
42099;DHT22;27758;55.900;8.516;2023-05-24T10:11:35;19.60;99.90
42099;DHT22;27758;55.900;8.516;2023-05-24T10:14:04;20.10;99.90
42099;DHT22;27758;55.900;8.516;2023-05-24T10:16:34;20.20;99.90
42099;DHT22;27758;55.900;8.516;2023-05-24T10:19:02;20.30;99.90
42099;DHT22;27758;55.900;8.516;2023-05-24T10:21:30;20.50;99.90
42099;DHT22;27758;55.900;8.516;2023-05-24T10:23:58;21.00;99.90
42099;DHT22;27758;55.900;8.516;2023-05-24T10:26:27;21.20;99.90
42099;DHT22;27758;55.900;8.516;2023-05-24T10:28:58;21.50;99.90
42099;DHT22;27758;55.900;8.516;2023-05-24T10:31:31;21.90;99.90
42099;DHT22;27758;55.900;8.516;2023-05-24T10:34:00;22.20;99.90
42099;DHT22;27758;55.900;8.516;2023-05-24T10:36:26;22.70;99.90
42099;DHT22;27758;55.900;8.516;2023-05-24T10:38:53;22.80;99.90
42099;DHT22;27758;55.900;8.516;2023-05-24T10:41:19;22.90;99.90
42099;DHT22;27758;55.900;8.516;2023-05-24T10:43:45;23.00;99.90
42099;DHT22;27758;55.900;8.516;2023-05-24T10:46:15;22.80;99.90
42099;DHT22;27758;55.900;8.516;2023-05-24T10:48:56;23.00;99.90
42099;DHT22;27758;55.900;8.516;2023-05-24T10:51:35;22.70;99.90
42099;DHT22;27758;55.900;8.516;2023-05-24T10:54:12;22.50;99.90
42099;DHT22;27758;55.900;8.516;2023-05-24T10:56:46;22.20;99.90
42099;DHT22;27758;55.900;8.516;2023-05-24T10:59:22;22.10;99.90
42099;DHT22;27758;55.900;8.516;2023-05-24T11:01:55;22.00;99.90
42099;DHT22;27758;55.900;8.516;2023-05-24T11:04:22;22.00;99.90
42099;DHT22;27758;55.900;8.516;2023-05-24T11:06:55;21.80;99.90
42099;DHT22;27758;55.900;8.516;2023-05-24T11:09:22;21.80;99.90
42099;DHT22;27758;55.900;8.516;2023-05-24T11:11:50;21.70;99.90
42099;DHT22;27758;55.900;8.516;2023-05-24T11:14:22;21.70;99.90
42099;DHT22;27758;55.900;8.516;2023-05-24T11:16:48;21.70;99.90
42099;DHT22;27758;55.900;8.516;2023-05-24T11:21:47;21.90;99.90
42099;DHT22;27758;55.900;8.516;2023-05-24T11:24:15;22.00;99.90
42099;DHT22;27758;55.900;8.516;2023-05-24T11:26:41;22.10;99.90
42099;DHT22;27758;55.900;8.516;2023-05-24T11:29:08;22.20;99.90
42099;DHT22;27758;55.900;8.516;2023-05-24T11:31:35;22.20;99.90
42099;DHT22;27758;55.900;8.516;2023-05-24T11:34:05;22.10;99.90
42099;DHT22;27758;55.900;8.516;2023-05-24T11:36:32;22.00;99.90
42099;DHT22;27758;55.900;8.516;2023-05-24T11:38:57;21.90;99.90
42099;DHT22;27758;55.900;8.516;2023-05-24T11:41:23;22.10;99.90
42099;DHT22;27758;55.900;8.516;2023-05-24T11:43:49;22.20;99.90
42099;DHT22;27758;55.900;8.516;2023-05-24T11:46:15;22.30;99.90
42099;DHT22;27758;55.900;8.516;2023-05-24T11:48:52;22.20;99.90
42099;DHT22;27758;55.900;8.516;2023-05-24T11:51:18;22.00;99.90
42099;DHT22;27758;55.900;8.516;2023-05-24T11:53:44;22.20;99.90
42099;DHT22;27758;55.900;8.516;2023-05-24T11:56:10;22.40;99.90
42099;DHT22;27758;55.900;8.516;2023-05-24T11:58:48;22.40;99.90
42099;DHT22;27758;55.900;8.516;2023-05-24T12:01:24;22.70;99.90
42099;DHT22;27758;55.900;8.516;2023-05-24T12:03:50;22.80;99.90
42099;DHT22;27758;55.900;8.516;2023-05-24T12:06:18;22.70;99.90
42099;DHT22;27758;55.900;8.516;2023-05-24T12:08:44;22.80;99.90
42099;DHT22;27758;55.900;8.516;2023-05-24T12:11:10;22.70;99.90
42099;DHT22;27758;55.900;8.516;2023-05-24T12:13:36;22.80;99.90
42099;DHT22;27758;55.900;8.516;2023-05-24T12:16:03;23.00;99.90
42099;DHT22;27758;55.900;8.516;2023-05-24T12:18:29;23.00;99.90
42099;DHT22;27758;55.900;8.516;2023-05-24T12:20:55;22.60;99.90
42099;DHT22;27758;55.900;8.516;2023-05-24T12:23:25;22.40;99.90
42099;DHT22;27758;55.900;8.516;2023-05-24T12:26:00;22.20;99.90
42099;DHT22;27758;55.900;8.516;2023-05-24T12:28:31;22.20;99.90
42099;DHT22;27758;55.900;8.516;2023-05-24T12:30:56;22.30;99.90
42099;DHT22;27758;55.900;8.516;2023-05-24T12:33:22;22.10;99.90
42099;DHT22;27758;55.900;8.516;2023-05-24T12:35:48;21.80;99.90
42099;DHT22;27758;55.900;8.516;2023-05-24T12:38:14;21.30;99.90
42099;DHT22;27758;55.900;8.516;2023-05-24T12:40:44;21.50;99.90
42099;DHT22;27758;55.900;8.516;2023-05-24T12:43:12;21.10;99.90
42099;DHT22;27758;55.900;8.516;2023-05-24T12:45:40;20.90;99.90
42099;DHT22;27758;55.900;8.516;2023-05-24T12:48:06;20.70;99.90
42099;DHT22;27758;55.900;8.516;2023-05-24T12:50:33;20.60;99.90
42099;DHT22;27758;55.900;8.516;2023-05-24T12:52:59;20.50;99.90
42099;DHT22;27758;55.900;8.516;2023-05-24T12:55:26;20.60;99.90
42099;DHT22;27758;55.900;8.516;2023-05-24T12:57:53;21.00;99.90
42099;DHT22;27758;55.900;8.516;2023-05-24T13:00:23;21.00;99.90
42099;DHT22;27758;55.900;8.516;2023-05-24T13:02:52;20.90;99.90
42099;DHT22;27758;55.900;8.516;2023-05-24T13:05:20;20.60;99.90
42099;DHT22;27758;55.900;8.516;2023-05-24T13:07:49;20.50;99.90
42099;DHT22;27758;55.900;8.516;2023-05-24T13:10:15;20.40;99.90
42099;DHT22;27758;55.900;8.516;2023-05-24T13:12:40;20.30;99.90
42099;DHT22;27758;55.900;8.516;2023-05-24T13:15:06;20.10;99.90
42099;DHT22;27758;55.900;8.516;2023-05-24T13:17:33;19.80;99.90
42099;DHT22;27758;55.900;8.516;2023-05-24T13:20:02;19.50;99.90
42099;DHT22;27758;55.900;8.516;2023-05-24T13:22:33;19.50;99.90
42099;DHT22;27758;55.900;8.516;2023-05-24T13:25:00;19.70;99.90
42099;DHT22;27758;55.900;8.516;2023-05-24T13:27:27;19.70;99.90
42099;DHT22;27758;55.900;8.516;2023-05-24T13:29:53;19.60;99.90
42099;DHT22;27758;55.900;8.516;2023-05-24T13:32:18;19.60;99.90
42099;DHT22;27758;55.900;8.516;2023-05-24T13:34:44;19.80;99.90
42099;DHT22;27758;55.900;8.516;2023-05-24T13:37:10;19.90;99.90
42099;DHT22;27758;55.900;8.516;2023-05-24T13:39:36;20.00;99.90
42099;DHT22;27758;55.900;8.516;2023-05-24T13:42:03;20.00;99.90
42099;DHT22;27758;55.900;8.516;2023-05-24T13:44:29;19.80;99.90
42099;DHT22;27758;55.900;8.516;2023-05-24T13:46:55;19.70;99.90
42099;DHT22;27758;55.900;8.516;2023-05-24T13:49:24;19.70;99.90
42099;DHT22;27758;55.900;8.516;2023-05-24T13:51:51;20.00;99.90
42099;DHT22;27758;55.900;8.516;2023-05-24T13:54:17;19.80;99.90
42099;DHT22;27758;55.900;8.516;2023-05-24T13:56:43;19.80;99.90
42099;DHT22;27758;55.900;8.516;2023-05-24T13:59:14;19.70;99.90
42099;DHT22;27758;55.900;8.516;2023-05-24T14:01:41;19.70;99.90
42099;DHT22;27758;55.900;8.516;2023-05-24T14:04:07;19.60;99.90
42099;DHT22;27758;55.900;8.516;2023-05-24T14:06:33;19.60;99.90
42099;DHT22;27758;55.900;8.516;2023-05-24T14:08:59;19.60;99.90
42099;DHT22;27758;55.900;8.516;2023-05-24T14:11:26;19.60;99.90
42099;DHT22;27758;55.900;8.516;2023-05-24T14:13:53;19.70;99.90
42099;DHT22;27758;55.900;8.516;2023-05-24T14:16:19;19.60;99.90
42099;DHT22;27758;55.900;8.516;2023-05-24T14:18:44;19.60;99.90
42099;DHT22;27758;55.900;8.516;2023-05-24T14:21:13;19.60;99.90
42099;DHT22;27758;55.900;8.516;2023-05-24T14:23:38;19.60;99.90
42099;DHT22;27758;55.900;8.516;2023-05-24T14:26:04;19.40;99.90
42099;DHT22;27758;55.900;8.516;2023-05-24T14:28:30;19.30;99.90
42099;DHT22;27758;55.900;8.516;2023-05-24T14:30:55;19.40;99.90
42099;DHT22;27758;55.900;8.516;2023-05-24T14:33:21;19.30;99.90
42099;DHT22;27758;55.900;8.516;2023-05-24T14:35:49;19.30;99.90
42099;DHT22;27758;55.900;8.516;2023-05-24T14:38:15;19.30;99.90
42099;DHT22;27758;55.900;8.516;2023-05-24T14:40:41;19.40;99.90
42099;DHT22;27758;55.900;8.516;2023-05-24T14:43:07;19.60;99.90
42099;DHT22;27758;55.900;8.516;2023-05-24T14:45:36;19.70;99.90
42099;DHT22;27758;55.900;8.516;2023-05-24T14:48:06;19.40;99.90
42099;DHT22;27758;55.900;8.516;2023-05-24T14:50:35;19.20;99.90
42099;DHT22;27758;55.900;8.516;2023-05-24T14:53:00;19.20;99.90
42099;DHT22;27758;55.900;8.516;2023-05-24T14:55:33;19.40;99.90
42099;DHT22;27758;55.900;8.516;2023-05-24T14:57:58;19.30;99.90
42099;DHT22;27758;55.900;8.516;2023-05-24T15:00:26;19.30;99.90
42099;DHT22;27758;55.900;8.516;2023-05-24T15:02:52;19.20;99.90
42099;DHT22;27758;55.900;8.516;2023-05-24T15:05:18;19.00;99.90
42099;DHT22;27758;55.900;8.516;2023-05-24T15:07:44;18.90;99.90
42099;DHT22;27758;55.900;8.516;2023-05-24T15:10:13;18.80;99.90
42099;DHT22;27758;55.900;8.516;2023-05-24T15:12:38;18.80;99.90
42099;DHT22;27758;55.900;8.516;2023-05-24T15:15:04;18.60;99.90
42099;DHT22;27758;55.900;8.516;2023-05-24T15:17:31;18.50;99.90
42099;DHT22;27758;55.900;8.516;2023-05-24T15:19:57;18.40;99.90
42099;DHT22;27758;55.900;8.516;2023-05-24T15:22:24;18.40;99.90
42099;DHT22;27758;55.900;8.516;2023-05-24T15:24:51;18.30;99.90
42099;DHT22;27758;55.900;8.516;2023-05-24T15:27:17;18.20;99.90
42099;DHT22;27758;55.900;8.516;2023-05-24T15:29:43;18.10;99.90
42099;DHT22;27758;55.900;8.516;2023-05-24T15:32:08;18.10;99.90
42099;DHT22;27758;55.900;8.516;2023-05-24T15:34:34;18.20;99.90
42099;DHT22;27758;55.900;8.516;2023-05-24T15:37:00;18.10;99.90
42099;DHT22;27758;55.900;8.516;2023-05-24T15:39:26;18.20;99.90
42099;DHT22;27758;55.900;8.516;2023-05-24T15:41:52;18.10;99.90